Venice, California
Current Conditions -  °F | °C
As of 9:51 AM on Monday 22 Dec 2014 (Local Time) from KSMO Reporting Station
Clear Clear  
Wind Chill: 65°   Ceiling: Unl
Heat Index: 65°   Visibility: 7mi
Dew Point: 49°   Wind: 0mph
Humidity: 56%   Direction: NA
Pressure: 30.06"   Gusts: NA
Location:  33.99°N, 118.46°W
Report Text: KSMO 221751Z 00000KT 7SM CLR 18/09 A3006 RMK AO2 SLP179 T01830094 10183 20111 51011
Loading
Personal Weather Stations






























Interactive Weather Map New forecast layout! Learn more

10-Day Weather Forecast

Advertisements
Track Severe Weather on mobile